Time;durP1;ratioP1;P1;durP2;ratioP2;P2;SDS_P1;SDS_P2;PMS_P1;PMS_P2;Temp;Humidity;BMP_temperature;BMP_pressure;BME280_temperature;BME280_humidity;BME280_pressure;Samples;Min_cycle;Max_cycle;Signal;HPM_P1;HPM_P2
2022/08/28 00:01:43;;;;;;;20.02;5.62;;;;;;;28.10;47.23;101044.73;1698757;82;21026;-57
2022/08/28 00:04:09;;;;;;;18.75;6.70;;;;;;;28.03;47.22;101045.77;1707011;83;21078;-57
2022/08/28 00:06:36;;;;;;;14.68;5.40;;;;;;;27.98;47.13;101039.16;1695559;82;21371;-57
2022/08/28 00:09:04;;;;;;;17.37;5.47;;;;;;;27.92;47.07;101041.86;1688872;83;22566;-57
2022/08/28 00:11:36;;;;;;;20.70;6.10;;;;;;;27.88;47.07;101036.92;1700253;83;21071;-57
2022/08/28 00:14:05;;;;;;;24.37;7.28;;;;;;;27.83;47.12;101033.80;1698541;82;21050;-57
2022/08/28 00:16:32;;;;;;;14.95;5.58;;;;;;;27.80;47.19;101031.41;1641522;86;21517;-57
2022/08/28 00:19:00;;;;;;;12.68;5.62;;;;;;;27.79;47.07;101033.72;1646462;86;21081;-57
2022/08/28 00:21:28;;;;;;;19.25;5.65;;;;;;;27.76;47.19;101031.33;1646435;86;21042;-57
2022/08/28 00:23:55;;;;;;;15.60;6.55;;;;;;;27.75;47.23;101031.81;1649849;86;21510;-57
2022/08/28 00:29:07;;;;;;;22.48;6.50;;;;;;;27.72;47.26;101029.91;1648967;86;21106;-57
2022/08/28 00:31:38;;;;;;;19.70;5.83;;;;;;;27.70;47.25;101030.54;1646105;86;21641;-57
2022/08/28 00:34:08;;;;;;;19.82;6.67;;;;;;;27.69;47.35;101032.84;1645914;86;21069;-57
2022/08/28 00:36:36;;;;;;;22.58;6.70;;;;;;;27.66;47.46;101028.61;1649116;86;21524;-58
2022/08/28 00:39:04;;;;;;;19.20;6.40;;;;;;;27.63;47.66;101032.05;1617552;86;21081;-57
2022/08/28 00:41:32;;;;;;;19.25;6.60;;;;;;;27.62;47.84;101030.34;1606766;88;21552;-57
2022/08/28 00:44:21;;;;;;;18.37;5.87;;;;;;;27.57;47.91;101029.44;1607651;88;21145;-57
2022/08/28 00:46:50;;;;;;;16.05;6.17;;;;;;;27.57;47.95;101035.27;1577342;89;21055;-57
2022/08/28 00:49:22;;;;;;;19.73;6.72;;;;;;;27.56;48.00;101029.06;1602216;88;21065;-57
2022/08/28 00:52:06;;;;;;;;;;;;;;;27.57;48.17;101025.91;1597008;88;21123;-57
2022/08/28 00:54:45;;;;;;;15.35;6.37;;;;;;;27.56;48.16;101030.89;1612033;88;20112;-56
2022/08/28 00:57:17;;;;;;;18.40;6.35;;;;;;;27.55;48.18;101033.22;1609783;88;21140;-57
2022/08/28 00:59:43;;;;;;;18.67;6.17;;;;;;;27.54;48.08;101032.84;1532003;93;21613;-57
2022/08/28 01:02:10;;;;;;;18.30;6.08;;;;;;;27.51;47.90;101033.14;1505995;94;21058;-57
2022/08/28 01:04:37;;;;;;;19.73;5.95;;;;;;;27.51;47.84;101037.14;1531009;93;21153;-57
2022/08/28 01:07:07;;;;;;;23.57;5.67;;;;;;;27.49;47.81;101028.41;1524787;93;21140;-57
2022/08/28 01:09:37;;;;;;;15.88;5.22;;;;;;;27.48;47.88;101030.72;1521351;93;21549;-57
2022/08/28 01:12:12;;;;;;;23.00;6.45;;;;;;;27.46;48.06;101032.67;1500967;95;21523;-57
2022/08/28 01:14:40;;;;;;;22.90;6.17;;;;;;;27.46;48.10;101030.00;1484689;96;21142;-58
2022/08/28 01:17:08;;;;;;;17.90;6.03;;;;;;;27.46;47.98;101032.67;1482865;96;21162;-57
2022/08/28 01:19:40;;;;;;;21.85;6.37;;;;;;;27.48;47.81;101033.39;1476553;96;21640;-57
2022/08/28 01:22:38;;;;;;;20.90;6.55;;;;;;;27.47;47.50;101029.04;1489752;95;21195;-57
2022/08/28 01:25:12;;;;;;;15.08;6.15;;;;;;;27.47;47.13;101034.39;1564464;90;21629;-57
2022/08/28 01:27:40;;;;;;;19.80;6.15;;;;;;;27.47;46.88;101031.72;1523060;94;21160;-57
2022/08/28 01:30:12;;;;;;;20.55;6.97;;;;;;;27.44;46.98;101027.48;1507946;94;21167;-57
2022/08/28 01:32:46;;;;;;;18.00;6.03;;;;;;;27.43;47.16;101027.62;1486462;96;21122;-57
2022/08/28 01:35:17;;;;;;;19.70;6.20;;;;;;;27.40;47.30;101028.73;1450984;98;21230;-57
2022/08/28 01:37:44;;;;;;;16.00;5.85;;;;;;;27.38;47.48;101025.34;1464174;96;21179;-57
2022/08/28 01:40:13;;;;;;;20.95;6.50;;;;;;;27.35;47.75;101021.59;1490116;95;21091;-57
2022/08/28 01:42:41;;;;;;;19.48;6.62;;;;;;;27.33;47.95;101016.34;1492925;94;21178;-57
2022/08/28 01:45:11;;;;;;;17.98;6.00;;;;;;;27.32;48.18;101012.00;1481431;95;21104;-57
2022/08/28 01:47:39;;;;;;;19.90;6.30;;;;;;;27.31;48.27;101011.63;1481451;95;21197;-57
2022/08/28 01:50:07;;;;;;;19.87;6.00;;;;;;;27.32;48.27;101015.16;1475036;94;21590;-57
2022/08/28 01:52:35;;;;;;;21.82;6.20;;;;;;;27.32;48.23;101017.34;1517734;93;21108;-57
2022/08/28 01:55:04;;;;;;;26.68;6.87;;;;;;;27.34;48.15;101016.76;1521795;92;21137;-57
2022/08/28 01:57:31;;;;;;;30.17;6.03;;;;;;;27.36;48.02;101020.14;1586553;88;21135;-57
2022/08/28 01:59:58;;;;;;;22.70;6.00;;;;;;;27.37;47.81;101027.16;1551861;91;21159;-58
2022/08/28 02:02:25;;;;;;;19.50;6.40;;;;;;;27.38;47.71;101015.51;1539514;92;21175;-57
2022/08/28 02:04:52;;;;;;;26.42;6.78;;;;;;;27.38;47.59;101027.53;1531166;92;21121;-57
2022/08/28 02:07:19;;;;;;;24.72;6.50;;;;;;;27.37;47.56;101024.97;1560353;90;21138;-57
2022/08/28 02:09:46;;;;;;;20.68;6.20;;;;;;;27.36;47.48;101025.48;1544013;91;21110;-57
2022/08/28 02:12:13;;;;;;;24.98;7.55;;;;;;;27.34;47.43;101022.10;1537110;92;21516;-57
2022/08/28 02:14:40;;;;;;;22.90;6.45;;;;;;;27.32;47.35;101024.03;1545308;91;21052;-57
2022/08/28 02:17:07;;;;;;;24.60;7.10;;;;;;;27.31;47.43;101024.99;1543326;90;21102;-57
2022/08/28 02:19:34;;;;;;;25.97;6.62;;;;;;;27.28;47.42;101027.95;1540355;91;21109;-57
2022/08/28 02:22:07;;;;;;;25.65;6.45;;;;;;;27.26;47.25;101027.23;1548727;90;21581;-56
2022/08/28 02:24:31;;;;;;;26.07;6.90;;;;;;;27.25;47.12;101032.20;1575329;89;21123;-57
2022/08/28 02:26:58;;;;;;;21.85;5.60;;;;;;;27.23;47.05;101032.83;1572678;90;21565;-57
2022/08/28 02:29:26;;;;;;;21.25;6.50;;;;;;;27.23;47.02;101031.98;1567534;90;21061;-57
2022/08/28 02:31:52;;;;;;;22.93;6.30;;;;;;;27.22;46.91;101033.80;1578400;90;21130;-57
2022/08/28 02:34:19;;;;;;;22.50;6.53;;;;;;;27.20;46.82;101032.26;1545625;91;21119;-57
2022/08/28 02:36:46;;;;;;;21.05;6.40;;;;;;;27.18;46.94;101036.89;1606110;87;21053;-57
2022/08/28 02:39:13;;;;;;;18.35;6.05;;;;;;;27.15;47.10;101029.13;1600436;88;21045;-57
2022/08/28 02:41:40;;;;;;;17.48;5.87;;;;;;;27.13;47.22;101036.42;1604761;88;21073;-57
2022/08/28 02:44:07;;;;;;;27.45;5.97;;;;;;;27.10;47.23;101038.87;1593442;88;21057;-57
2022/08/28 02:46:33;;;;;;;21.85;6.03;;;;;;;27.07;47.25;101033.80;1629436;86;21101;-57
2022/08/28 02:49:00;;;;;;;22.82;6.37;;;;;;;27.05;47.31;101041.10;1627446;87;21121;-57
2022/08/28 02:51:30;;;;;;;26.00;6.53;;;;;;;27.03;47.42;101041.72;1620297;87;21194;-57
2022/08/28 02:53:57;;;;;;;16.50;6.37;;;;;;;27.01;47.51;101043.68;1627079;86;21548;-57
2022/08/28 02:56:24;;;;;;;23.87;6.35;;;;;;;27.00;47.63;101039.30;1629795;87;21044;-57
2022/08/28 02:58:50;;;;;;;22.02;6.33;;;;;;;27.01;47.70;101049.02;1625362;87;21481;-57
2022/08/28 03:01:17;;;;;;;23.90;6.78;;;;;;;27.01;47.70;101045.50;1678615;83;21570;-57
2022/08/28 03:03:44;;;;;;;21.50;6.10;;;;;;;26.99;47.73;101045.63;1693192;84;21127;-57
2022/08/28 03:06:11;;;;;;;23.40;6.65;;;;;;;26.99;47.76;101053.65;1719425;82;21058;-57
2022/08/28 03:08:40;;;;;;;24.20;5.67;;;;;;;26.97;47.78;101051.59;1690143;85;21003;-57
2022/08/28 03:11:09;;;;;;;27.85;6.83;;;;;;;26.95;47.93;101049.55;1690724;84;21003;-57
2022/08/28 03:13:36;;;;;;;20.75;6.70;;;;;;;26.95;48.13;101054.03;1690674;84;21525;-57
2022/08/28 03:16:04;;;;;;;23.50;6.12;;;;;;;26.94;48.22;101055.85;1690832;84;21059;-58
2022/08/28 03:18:31;;;;;;;18.95;6.28;;;;;;;26.92;48.31;101056.95;1690538;84;21578;-57
2022/08/28 03:20:58;;;;;;;21.20;6.40;;;;;;;26.91;48.47;101056.12;1700807;84;21040;-57
2022/08/28 03:23:25;;;;;;;18.92;5.87;;;;;;;26.90;48.58;101058.42;1690886;84;21671;-57
2022/08/28 03:26:08;;;;;;;22.65;6.42;;;;;;;26.90;48.58;101058.91;1697572;84;21051;-57
2022/08/28 03:28:39;;;;;;;15.43;5.75;;;;;;;26.90;48.55;101063.77;1603130;88;21090;-57
2022/08/28 03:31:10;;;;;;;29.32;7.20;;;;;;;26.91;48.62;101062.80;1603674;87;21104;-57
2022/08/28 03:33:37;;;;;;;18.30;6.17;;;;;;;26.92;48.66;101072.97;1608084;87;21049;-57
2022/08/28 03:36:04;;;;;;;22.40;6.37;;;;;;;26.93;48.57;101072.02;1613514;88;21101;-57
2022/08/28 03:38:32;;;;;;;21.62;6.62;;;;;;;26.93;48.50;101074.68;1606946;87;21061;-57
2022/08/28 03:41:00;;;;;;;23.18;5.80;;;;;;;26.93;48.48;101074.20;1603260;88;21038;-57
2022/08/28 03:43:27;;;;;;;20.88;6.40;;;;;;;26.92;48.54;101083.66;1605083;87;21617;-57
2022/08/28 03:45:59;;;;;;;20.95;6.25;;;;;;;26.91;48.57;101084.65;1604072;87;21092;-57
2022/08/28 03:48:27;;;;;;;20.40;5.67;;;;;;;26.90;48.43;101078.93;1610115;87;21077;-57
2022/08/28 03:50:55;;;;;;;17.02;6.00;;;;;;;26.87;48.28;101085.41;1604533;87;21505;-58
2022/08/28 03:53:23;;;;;;;17.82;6.20;;;;;;;26.87;48.26;101086.73;1606290;87;21072;-57
2022/08/28 03:55:50;;;;;;;24.75;7.03;;;;;;;26.86;48.15;101089.03;1603425;88;21184;-57
2022/08/28 03:58:17;;;;;;;17.48;5.55;;;;;;;26.88;47.94;101083.08;1613052;87;21616;-56
2022/08/28 04:00:44;;;;;;;21.15;6.47;;;;;;;26.88;47.88;101088.42;1614023;87;21066;-57
2022/08/28 04:03:11;;;;;;;15.28;6.28;;;;;;;26.90;47.65;101086.46;1605729;88;21594;-57
2022/08/28 04:05:39;;;;;;;17.48;5.50;;;;;;;26.94;47.42;101090.56;1605881;88;21053;-57
2022/08/28 04:08:07;;;;;;;15.25;5.33;;;;;;;26.94;47.43;101084.37;1602476;87;21534;-57
2022/08/28 04:10:34;;;;;;;16.15;5.22;;;;;;;26.94;47.38;101089.71;1605141;88;21597;-57
2022/08/28 04:13:02;;;;;;;22.67;6.87;;;;;;;26.95;47.22;101076.25;1606462;87;21093;-57
2022/08/28 04:15:29;;;;;;;24.05;5.62;;;;;;;26.95;47.23;101080.27;1610467;87;21027;-57
2022/08/28 04:17:56;;;;;;;18.23;5.80;;;;;;;26.96;47.34;101084.61;1606284;88;21128;-57
2022/08/28 04:20:23;;;;;;;19.25;5.37;;;;;;;26.98;47.42;101089.33;1610029;87;21134;-57
2022/08/28 04:22:50;;;;;;;14.15;5.30;;;;;;;26.99;47.60;101085.70;1604882;86;21561;-57
2022/08/28 04:25:17;;;;;;;12.55;5.25;;;;;;;27.00;47.82;101087.38;1685247;85;21065;-57
2022/08/28 04:27:44;;;;;;;17.48;5.67;;;;;;;27.02;47.90;101087.23;1690809;84;21074;-57
2022/08/28 04:30:12;;;;;;;19.87;5.83;;;;;;;27.05;48.00;101090.52;1688006;84;21019;-57
2022/08/28 04:32:39;;;;;;;22.15;6.65;;;;;;;27.09;48.10;101091.95;1691009;84;21526;-57
2022/08/28 04:35:08;;;;;;;23.32;6.22;;;;;;;27.13;48.13;101092.05;1690302;84;21086;-57
2022/08/28 04:37:36;;;;;;;20.75;5.75;;;;;;;27.18;48.17;101088.47;1690842;84;21018;-57
2022/08/28 04:40:07;;;;;;;20.52;5.78;;;;;;;27.23;48.29;101094.28;1690816;84;21038;-57
2022/08/28 04:42:34;;;;;;;16.52;6.17;;;;;;;27.28;48.28;101094.75;1691017;84;21045;-58
2022/08/28 04:45:01;;;;;;;23.30;5.95;;;;;;;27.32;48.22;101094.84;1690941;85;21051;-57
2022/08/28 04:47:29;;;;;;;20.23;6.10;;;;;;;27.35;48.20;101089.25;1690664;84;21546;-57
2022/08/28 04:49:55;;;;;;;19.07;5.62;;;;;;;27.38;48.09;101094.34;1690887;84;21530;-57
2022/08/28 04:52:22;;;;;;;18.30;4.92;;;;;;;27.38;48.09;101088.14;1690755;84;20975;-57
2022/08/28 04:54:48;;;;;;;17.48;6.17;;;;;;;27.41;47.96;101084.37;1690472;84;21093;-57
2022/08/28 04:57:15;;;;;;;12.28;4.80;;;;;;;27.43;47.80;101085.91;1690690;84;21056;-57
2022/08/28 04:59:43;;;;;;;16.48;6.15;;;;;;;27.47;47.34;101091.85;1690726;84;21106;-57
2022/08/28 05:02:10;;;;;;;18.82;5.45;;;;;;;27.50;46.98;101091.09;1690713;84;21051;-57
2022/08/28 05:04:37;;;;;;;20.82;6.03;;;;;;;27.53;46.68;101096.19;1690856;84;21062;-57
2022/08/28 05:07:04;;;;;;;15.50;4.80;;;;;;;27.57;46.26;101096.75;1690603;84;21078;-57
2022/08/28 05:09:33;;;;;;;22.60;6.00;;;;;;;27.58;45.10;101095.75;1690735;84;21050;-57
2022/08/28 05:12:04;;;;;;;13.45;5.83;;;;;;;27.60;44.67;101101.81;1690973;84;21070;-57
2022/08/28 05:14:32;;;;;;;17.95;5.60;;;;;;;27.62;44.76;101101.19;1690801;84;21050;-57
2022/08/28 05:16:59;;;;;;;24.02;6.58;;;;;;;27.65;45.19;101099.60;1690838;84;21007;-57
2022/08/28 05:19:26;;;;;;;15.50;5.55;;;;;;;27.66;45.40;101101.27;1690678;84;21070;-57
2022/08/28 05:21:53;;;;;;;18.00;5.90;;;;;;;27.67;45.59;101100.31;1690924;84;21007;-57
2022/08/28 05:24:21;;;;;;;19.17;6.15;;;;;;;27.69;45.66;101110.38;1690657;84;21038;-57
2022/08/28 05:26:48;;;;;;;14.13;5.10;;;;;;;27.72;45.75;101111.47;1690731;84;21065;-57
2022/08/28 05:29:15;;;;;;;22.52;6.12;;;;;;;27.74;45.66;101108.16;1678602;84;21031;-57
2022/08/28 05:31:42;;;;;;;16.07;4.83;;;;;;;27.76;45.74;101110.22;1690665;84;21050;-57
2022/08/28 05:34:09;;;;;;;16.65;5.20;;;;;;;27.79;45.96;101113.94;1688126;84;21031;-58
2022/08/28 05:36:37;;;;;;;10.72;5.10;;;;;;;27.82;46.21;101111.01;1690078;85;21046;-57
2022/08/28 05:39:07;;;;;;;14.47;4.85;;;;;;;27.86;46.44;101114.59;1690626;84;21018;-58
2022/08/28 05:41:34;;;;;;;13.95;5.33;;;;;;;27.89;46.25;101116.16;1691122;84;21003;-57
2022/08/28 05:44:04;;;;;;;18.98;5.92;;;;;;;27.93;46.22;101116.23;1690675;84;21522;-57
2022/08/28 05:46:32;;;;;;;12.78;5.03;;;;;;;27.98;46.16;101114.05;1691040;84;21018;-57
2022/08/28 05:48:59;;;;;;;16.90;5.95;;;;;;;28.04;46.17;101112.17;1690733;84;21007;-57
2022/08/28 05:51:26;;;;;;;18.90;4.87;;;;;;;28.09;45.54;101113.44;1690730;84;21059;-57
2022/08/28 05:53:53;;;;;;;11.03;4.70;;;;;;;28.14;44.24;101117.91;1690698;84;21529;-58
2022/08/28 05:56:23;;;;;;;22.37;5.03;;;;;;;28.21;43.27;101118.20;1690862;84;21101;-57
2022/08/28 05:58:50;;;;;;;20.55;5.30;;;;;;;28.26;42.05;101125.31;1690795;84;21030;-57
2022/08/28 06:01:20;;;;;;;18.80;4.70;;;;;;;28.31;40.99;101124.42;1690623;84;21082;-57
2022/08/28 06:04:01;;;;;;;13.32;4.70;;;;;;;28.37;40.45;101126.55;1685020;85;21031;-57
2022/08/28 06:06:32;;;;;;;20.65;5.37;;;;;;;28.42;40.32;101122.94;1682036;85;21549;-57
2022/08/28 06:09:04;;;;;;;14.13;4.67;;;;;;;28.49;40.09;101124.09;1688769;84;21073;-57
2022/08/28 06:11:31;;;;;;;15.68;4.97;;;;;;;28.57;39.87;101126.95;1617305;87;21604;-57
2022/08/28 06:14:00;;;;;;;18.50;5.05;;;;;;;28.65;39.43;101124.42;1615499;87;21054;-58
2022/08/28 06:16:28;;;;;;;14.50;5.12;;;;;;;28.74;38.73;101124.93;1616777;87;21091;-57
2022/08/28 06:18:55;;;;;;;13.65;4.45;;;;;;;28.82;38.78;101126.41;1615672;87;21151;-57
2022/08/28 06:21:23;;;;;;;20.72;5.53;;;;;;;28.92;38.54;101135.28;1619380;88;21025;-57
2022/08/28 06:23:50;;;;;;;11.97;4.70;;;;;;;29.03;38.66;101133.44;1617552;86;21066;-58
2022/08/28 06:26:17;;;;;;;15.10;4.67;;;;;;;29.14;38.20;101138.66;1619556;87;21018;-57
2022/08/28 06:28:44;;;;;;;15.75;5.30;;;;;;;29.23;38.54;101144.03;1619455;87;21101;-57
2022/08/28 06:31:11;;;;;;;14.90;4.97;;;;;;;29.31;38.44;101142.81;1620153;87;21116;-57
2022/08/28 06:33:41;;;;;;;14.33;4.80;;;;;;;29.39;38.67;101154.14;1623218;86;21166;-58
2022/08/28 06:36:08;;;;;;;15.55;4.72;;;;;;;29.43;38.95;101155.06;1612986;87;21101;-57
2022/08/28 06:38:35;;;;;;;15.20;4.75;;;;;;;29.50;38.99;101155.33;1618212;87;21180;-57
2022/08/28 06:41:07;;;;;;;12.03;4.45;;;;;;;29.54;38.84;101154.05;1618545;87;21545;-57
2022/08/28 06:43:34;;;;;;;18.10;5.12;;;;;;;29.59;38.73;101155.81;1616468;87;21053;-57
2022/08/28 06:46:01;;;;;;;14.65;5.08;;;;;;;29.63;38.71;101159.41;1616716;87;21203;-57
2022/08/28 06:48:28;;;;;;;23.75;6.20;;;;;;;29.68;39.54;101157.60;1614804;87;21069;-57
2022/08/28 06:50:55;;;;;;;13.22;5.20;;;;;;;29.74;40.21;101157.90;1615195;87;21578;-58
2022/08/28 06:53:25;;;;;;;17.65;5.47;;;;;;;29.82;40.61;101165.20;1621959;87;21055;-57
2022/08/28 06:56:07;;;;;;;21.17;5.77;;;;;;;29.92;40.83;101171.41;1612807;87;21113;-57
2022/08/28 06:58:40;;;;;;;17.20;6.35;;;;;;;29.99;40.91;101161.75;1616848;87;21632;-58
2022/08/28 07:01:21;;;;;;;19.48;5.22;;;;;;;30.06;40.87;101167.38;1619986;87;21062;-58
2022/08/28 07:03:50;;;;;;;15.88;4.87;;;;;;;30.12;40.30;101162.27;1615620;87;21553;-57
2022/08/28 07:06:18;;;;;;;23.00;5.50;;;;;;;30.18;39.98;101161.67;1613539;87;21053;-57
2022/08/28 07:08:45;;;;;;;15.95;5.25;;;;;;;30.22;39.51;101165.75;1646524;85;21002;-57
2022/08/28 07:11:16;;;;;;;15.08;4.65;;;;;;;30.25;39.56;101168.11;1722809;82;20992;-57
2022/08/28 07:13:43;;;;;;;14.65;4.70;;;;;;;30.29;39.47;101164.20;1721215;82;21021;-57
2022/08/28 07:16:11;;;;;;;16.32;5.37;;;;;;;30.35;39.07;101160.91;1720290;82;21021;-58
2022/08/28 07:18:38;;;;;;;16.50;4.72;;;;;;;30.44;38.86;101165.36;1719014;82;21061;-57
2022/08/28 07:21:06;;;;;;;19.17;5.40;;;;;;;30.58;38.54;101168.53;1719763;82;21502;-57
2022/08/28 07:23:34;;;;;;;15.80;4.60;;;;;;;30.74;38.46;101163.33;1720477;82;21007;-55
2022/08/28 07:26:07;;;;;;;21.75;5.05;;;;;;;30.88;38.07;101166.36;1712508;83;21466;-57
2022/08/28 07:28:34;;;;;;;19.30;5.15;;;;;;;31.02;37.86;101168.98;1678088;84;21034;-57
2022/08/28 07:31:04;;;;;;;17.90;5.08;;;;;;;31.16;37.39;101169.80;1717123;82;20994;-58
2022/08/28 07:33:31;;;;;;;25.67;5.40;;;;;;;31.32;37.00;101162.68;1720736;82;21065;-57
2022/08/28 07:35:58;;;;;;;16.23;4.92;;;;;;;31.50;36.38;101161.34;1719116;82;21591;-57
2022/08/28 07:38:25;;;;;;;18.30;5.17;;;;;;;31.65;35.56;101165.64;1686431;84;21046;-57
2022/08/28 07:40:53;;;;;;;16.65;5.22;;;;;;;31.73;35.30;101167.03;1718265;82;21470;-58
2022/08/28 07:46:07;;;;;;;16.62;5.37;;;;;;;31.77;35.29;101166.56;1723898;82;21094;-57
2022/08/28 07:48:35;;;;;;;12.75;5.20;;;;;;;31.78;35.12;101164.20;1720535;82;21030;-58
2022/08/28 07:51:03;;;;;;;17.32;5.50;;;;;;;31.78;34.91;101166.89;1724002;83;21034;-57
2022/08/28 07:53:30;;;;;;;19.45;5.15;;;;;;;31.76;35.15;101176.97;1723080;82;21006;-57
2022/08/28 07:55:57;;;;;;;17.90;6.05;;;;;;;31.75;35.48;101180.68;1721027;82;21047;-58
2022/08/28 07:58:25;;;;;;;21.65;6.22;;;;;;;31.74;36.10;101184.36;1723441;82;21927;-58
2022/08/28 08:00:52;;;;;;;18.67;5.75;;;;;;;31.72;36.92;101179.63;1666690;84;21039;-58
2022/08/28 08:03:19;;;;;;;18.42;5.50;;;;;;;31.71;37.68;101182.00;1714620;82;21060;-58
2022/08/28 08:05:56;;;;;;;20.88;6.70;;;;;;;31.71;38.17;101182.00;1720677;82;21074;-57
2022/08/28 08:08:23;;;;;;;16.85;5.83;;;;;;;31.73;38.94;101181.83;1690194;83;21019;-57
2022/08/28 08:11:02;;;;;;;20.62;6.75;;;;;;;31.72;39.57;101177.44;1691939;84;21098;-57
2022/08/28 08:13:29;;;;;;;19.23;6.35;;;;;;;31.73;40.12;101182.69;1597904;88;22306;-58
2022/08/28 08:16:06;;;;;;;21.30;6.50;;;;;;;31.72;40.55;101183.67;1576928;88;21164;-58
2022/08/28 08:18:34;;;;;;;15.88;5.92;;;;;;;31.73;41.08;101184.03;1587391;88;21312;-58
2022/08/28 08:21:02;;;;;;;19.62;6.00;;;;;;;31.74;41.70;101178.97;1594446;89;21061;-58
2022/08/28 08:23:29;;;;;;;19.55;5.83;;;;;;;31.76;42.13;101178.31;1556157;89;22287;-57
2022/08/28 08:25:59;;;;;;;21.00;6.50;;;;;;;31.78;42.32;101180.34;1595158;88;21090;-57
2022/08/28 08:28:26;;;;;;;22.67;7.12;;;;;;;31.79;42.50;101180.70;1593231;88;21092;-57
2022/08/28 08:31:09;;;;;;;15.23;5.95;;;;;;;31.81;42.76;101183.22;1572185;89;21108;-58
2022/08/28 08:33:37;;;;;;;19.67;6.62;;;;;;;31.82;42.79;101177.67;1593142;88;21095;-57
2022/08/28 08:36:06;;;;;;;19.30;6.20;;;;;;;31.85;43.19;101179.20;1592327;88;21642;-57
2022/08/28 08:38:33;;;;;;;21.20;6.12;;;;;;;31.86;43.07;101185.77;1596643;88;21547;-57
2022/08/28 08:41:00;;;;;;;24.23;7.33;;;;;;;31.89;43.20;101189.99;1596862;88;21086;-58
2022/08/28 08:43:32;;;;;;;19.90;6.58;;;;;;;31.92;43.46;101182.44;1582482;88;21099;-57
2022/08/28 08:45:59;;;;;;;15.43;5.55;;;;;;;31.96;43.37;101185.70;1597841;88;21072;-57
2022/08/28 08:48:29;;;;;;;23.40;6.55;;;;;;;31.97;43.29;101184.19;1583136;88;21568;-58
2022/08/28 08:51:05;;;;;;;18.27;6.67;;;;;;;32.00;43.31;101190.61;1600010;87;21098;-58
2022/08/28 08:53:49;;;;;;;17.85;6.05;;;;;;;32.02;43.12;101188.60;1622204;86;21046;-57
2022/08/28 08:56:17;;;;;;;18.42;5.75;;;;;;;32.04;43.17;101183.90;1622643;87;21086;-57
2022/08/28 08:58:48;;;;;;;19.37;6.60;;;;;;;32.06;43.46;101183.73;1621039;87;21078;-57
2022/08/28 09:01:43;;;;;;;18.63;6.80;;;;;;;32.07;43.39;101186.25;1616369;86;21089;-57
2022/08/28 09:04:45;;;;;;;13.68;5.33;;;;;;;32.11;43.62;101194.02;1596859;88;21882;-58
2022/08/28 09:07:23;;;;;;;14.47;5.50;;;;;;;32.13;43.70;101196.05;1588374;89;21108;-58
2022/08/28 09:09:54;;;;;;;18.60;6.47;;;;;;;32.16;43.78;101195.22;1627916;83;21091;-58
2022/08/28 09:12:28;;;;;;;19.92;6.33;;;;;;;32.20;43.88;101193.89;1703658;83;21053;-58
2022/08/28 09:15:14;;;;;;;13.80;5.87;;;;;;;32.23;43.92;101196.27;1707952;82;21062;-58
2022/08/28 09:17:56;;;;;;;13.72;5.05;;;;;;;32.29;43.77;101197.45;1716793;83;21096;-57
2022/08/28 09:20:26;;;;;;;18.10;5.70;;;;;;;32.33;43.91;101204.20;1690176;83;20990;-58
2022/08/28 09:22:54;;;;;;;14.73;5.20;;;;;;;32.36;43.89;101193.09;1673418;85;21585;-58
2022/08/28 09:25:55;;;;;;;17.30;5.80;;;;;;;32.41;43.79;101196.16;1717447;82;21049;-57
2022/08/28 09:28:24;;;;;;;;;;;;;;;32.45;43.76;101198.86;1724988;83;21032;-58
2022/08/28 09:30:57;;;;;;;12.30;5.03;;;;;;;32.50;43.27;101198.73;1716234;82;20174;-57
2022/08/28 09:33:31;;;;;;;12.47;5.25;;;;;;;32.52;42.99;101194.55;1598162;88;21139;-58
2022/08/28 09:36:03;;;;;;;18.57;6.08;;;;;;;32.55;43.04;101195.55;1625340;88;21066;-57
2022/08/28 09:38:30;;;;;;;17.62;6.03;;;;;;;32.56;43.07;101196.72;1498075;94;21160;-58
2022/08/28 09:43:54;;;;;;;17.07;4.83;;;;;;;32.62;42.83;101194.72;1493697;94;21110;-57
2022/08/28 09:46:27;;;;;;;11.75;5.10;;;;;;;32.66;42.96;101189.87;1510459;94;21098;-58
2022/08/28 09:49:10;;;;;;;18.32;5.42;;;;;;;32.69;43.02;101189.52;1498545;94;21150;-58
2022/08/28 09:51:38;;;;;;;16.00;4.87;;;;;;;32.74;42.80;101185.84;1473808;95;21165;-58
2022/08/28 09:54:12;;;;;;;12.47;5.50;;;;;;;32.79;42.83;101182.13;1495552;95;21597;-58
2022/08/28 09:56:40;;;;;;;11.20;4.83;;;;;;;32.82;42.63;101184.50;1493494;95;21221;-57
2022/08/28 09:59:13;;;;;;;14.70;5.20;;;;;;;32.86;42.54;101180.46;1530926;93;21135;-58
2022/08/28 10:02:00;;;;;;;15.78;4.58;;;;;;;32.90;42.13;101180.46;1485557;95;21073;-58
2022/08/28 10:05:14;;;;;;;15.30;5.17;;;;;;;32.94;42.09;101183.66;1488687;95;21573;-58
2022/08/28 10:07:53;;;;;;;12.73;4.50;;;;;;;32.98;42.19;101179.15;1434425;97;21177;-57
2022/08/28 10:10:49;;;;;;;16.45;5.37;;;;;;;33.01;41.52;101178.83;1449378;98;21179;-57
2022/08/28 10:13:30;;;;;;;15.08;4.87;;;;;;;33.04;41.27;101177.13;1421046;99;21157;-58
2022/08/28 10:16:20;;;;;;;10.98;4.72;;;;;;;33.06;41.44;101177.80;1461685;96;21095;-58
2022/08/28 10:19:14;;;;;;;14.25;4.80;;;;;;;33.09;41.47;101184.23;1495557;96;21087;-58
2022/08/28 10:21:52;;;;;;;13.22;4.65;;;;;;;33.11;41.52;101178.16;1495232;96;21099;-58
2022/08/28 10:24:39;;;;;;;11.75;4.75;;;;;;;33.13;41.46;101174.78;1498347;94;21122;-58
2022/08/28 10:27:30;;;;;;;13.53;4.25;;;;;;;33.16;41.59;101177.13;1490397;95;21118;-57
2022/08/28 10:30:09;;;;;;;13.32;4.37;;;;;;;33.19;41.94;101175.45;1508298;93;21185;-58
2022/08/28 10:33:02;;;;;;;14.50;4.80;;;;;;;33.23;42.04;101172.76;1539534;90;21089;-57
2022/08/28 10:35:37;;;;;;;9.95;4.12;;;;;;;33.27;41.98;101179.50;1558374;90;21640;-58
2022/08/28 10:38:21;;;;;;;11.80;4.45;;;;;;;33.30;42.08;101170.23;1516490;93;21170;-58
2022/08/28 10:41:10;;;;;;;13.60;4.80;;;;;;;33.31;42.03;101168.70;1516960;93;21147;-58
2022/08/28 10:43:44;;;;;;;12.55;4.25;;;;;;;33.34;41.87;101168.87;1451828;98;21138;-58
2022/08/28 10:46:24;;;;;;;11.90;4.85;;;;;;;33.35;42.04;101169.20;1451723;98;21136;-58
2022/08/28 10:49:10;;;;;;;12.85;4.37;;;;;;;33.37;42.22;101169.37;1464225;98;21561;-57
2022/08/28 10:51:45;;;;;;;12.18;4.80;;;;;;;33.39;41.84;101170.04;1464005;98;21113;-58
2022/08/28 10:54:17;;;;;;;14.68;4.95;;;;;;;33.41;41.83;101170.71;1477589;93;21125;-58
2022/08/28 10:56:50;;;;;;;13.78;5.28;;;;;;;33.42;41.85;101169.72;1518258;93;21109;-58
2022/08/28 10:59:16;;;;;;;14.95;4.55;;;;;;;33.43;41.93;101171.38;1469792;97;21080;-58
2022/08/28 11:01:43;;;;;;;16.40;5.80;;;;;;;33.44;42.09;101172.23;1505096;94;21607;-58
2022/08/28 11:04:18;;;;;;;14.58;5.00;;;;;;;33.46;42.08;101172.91;1501081;94;21095;-58
2022/08/28 11:06:51;;;;;;;13.78;5.67;;;;;;;33.46;42.13;101171.05;1432617;97;21169;-57
2022/08/28 11:09:37;;;;;;;15.68;5.03;;;;;;;33.49;42.31;101172.61;1427220;98;21180;-58
2022/08/28 11:12:18;;;;;;;14.38;4.78;;;;;;;33.49;42.23;101168.03;1406813;100;21139;-58
2022/08/28 11:14:46;;;;;;;;;;;;;;;33.51;42.27;101171.41;1412028;100;21186;-59
2022/08/28 11:17:28;;;;;;;13.68;4.80;;;;;;;33.53;42.32;101169.37;1404187;100;20174;-58
2022/08/28 11:20:09;;;;;;;12.95;4.87;;;;;;;33.54;42.39;101165.67;1408084;100;21123;-58
2022/08/28 11:22:55;;;;;;;11.68;4.78;;;;;;;33.54;42.40;101164.33;1403744;100;21128;-57
2022/08/28 11:25:27;;;;;;;10.18;4.20;;;;;;;33.55;42.50;101161.95;1388037;101;21160;-58
2022/08/28 11:28:21;;;;;;;9.10;4.50;;;;;;;33.57;42.53;101163.15;1426098;99;21221;-58
2022/08/28 11:31:11;;;;;;;11.38;4.90;;;;;;;33.55;42.71;101157.90;1386535;101;21142;-58
2022/08/28 11:33:54;;;;;;;17.12;5.35;;;;;;;33.57;42.85;101159.92;1407620;100;21244;-58
2022/08/28 11:36:28;;;;;;;21.75;5.55;;;;;;;33.56;43.11;101156.91;1408895;100;21137;-58
2022/08/28 11:39:04;;;;;;;15.38;5.70;;;;;;;33.58;43.25;101161.62;1398126;100;21160;-58
2022/08/28 11:41:35;;;;;;;14.75;5.15;;;;;;;33.57;43.34;101159.92;1400044;101;21168;-58
2022/08/28 11:44:25;;;;;;;12.40;5.35;;;;;;;33.58;43.46;101158.92;1480788;93;21589;-58